Time;durP1;ratioP1;P1;durP2;ratioP2;P2;SDS_P1;SDS_P2;PMS_P1;PMS_P2;Temp;Humidity;BMP_temperature;BMP_pressure;BME280_temperature;BME280_humidity;BME280_pressure;Samples;Min_cycle;Max_cycle;Signal;HPM_P1;HPM_P2
2021/03/24 00:00:25;;;;;;;2.45;2.15;;;21.30;38.50;;;;;;5039476;28;20630;-84
2021/03/24 00:02:53;;;;;;;5.07;2.42;;;21.20;38.50;;;;;;5036195;28;20059;-85
2021/03/24 00:05:22;;;;;;;3.38;2.15;;;21.30;38.50;;;;;;5022117;28;20039;-84
2021/03/24 00:07:48;;;;;;;2.60;2.40;;;21.20;38.50;;;;;;5027330;28;20508;-86
2021/03/24 00:10:14;;;;;;;3.03;1.95;;;21.20;38.50;;;;;;5039202;28;20036;-86
2021/03/24 00:12:40;;;;;;;2.75;2.08;;;21.20;38.50;;;;;;5027264;28;20125;-85
2021/03/24 00:15:09;;;;;;;3.45;2.35;;;21.20;38.50;;;;;;5048336;28;20744;-84
2021/03/24 00:17:35;;;;;;;3.38;2.25;;;21.20;38.50;;;;;;5022497;28;20733;-84
2021/03/24 00:20:01;;;;;;;2.08;1.88;;;21.20;38.50;;;;;;5024081;28;20052;-85
2021/03/24 00:22:26;;;;;;;2.30;1.70;;;21.20;38.50;;;;;;5023838;28;20020;-84
2021/03/24 00:24:52;;;;;;;2.28;2.08;;;21.10;38.50;;;;;;5050713;28;20403;-84
2021/03/24 00:27:18;;;;;;;2.38;2.17;;;21.10;38.40;;;;;;5026294;28;20047;-85
2021/03/24 00:29:43;;;;;;;2.28;2.00;;;21.10;38.50;;;;;;5024312;28;20051;-84
2021/03/24 00:32:10;;;;;;;2.30;2.10;;;21.10;38.50;;;;;;5047090;28;20017;-84
2021/03/24 00:34:36;;;;;;;2.88;1.75;;;21.10;38.50;;;;;;5037794;28;20842;-84
2021/03/24 00:37:02;;;;;;;2.05;1.85;;;21.10;38.50;;;;;;5025185;28;20036;-84
2021/03/24 00:39:28;;;;;;;2.58;2.38;;;21.10;38.50;;;;;;5021324;28;20045;-84
2021/03/24 00:41:54;;;;;;;2.47;2.22;;;21.00;38.40;;;;;;5037627;28;20596;-84
2021/03/24 00:44:19;;;;;;;2.92;2.35;;;21.00;38.40;;;;;;5044816;28;20039;-85
2021/03/24 00:46:45;;;;;;;2.63;2.00;;;21.10;38.50;;;;;;5016984;28;20482;-85
2021/03/24 00:49:13;;;;;;;2.33;2.17;;;21.00;38.40;;;;;;5036750;28;20025;-85
2021/03/24 00:51:39;;;;;;;2.45;2.25;;;21.00;38.50;;;;;;5058201;28;20056;-84
2021/03/24 00:54:04;;;;;;;2.67;1.75;;;21.00;38.50;;;;;;5063361;28;20064;-84
2021/03/24 00:56:30;;;;;;;2.13;1.92;;;21.00;38.50;;;;;;5043628;28;20020;-84
2021/03/24 00:58:55;;;;;;;4.05;2.22;;;21.00;38.50;;;;;;5038609;28;20033;-85
2021/03/24 01:01:21;;;;;;;2.42;2.22;;;21.00;38.50;;;;;;5037591;28;20025;-84
2021/03/24 01:03:47;;;;;;;2.75;1.75;;;21.00;38.50;;;;;;5052758;28;20106;-85
2021/03/24 01:06:12;;;;;;;2.30;2.10;;;20.90;38.40;;;;;;5030768;28;20047;-84
2021/03/24 01:08:38;;;;;;;2.70;2.13;;;20.90;38.50;;;;;;5060263;28;20036;-85
2021/03/24 01:11:04;;;;;;;2.53;2.33;;;20.90;38.50;;;;;;5034015;28;20024;-84
2021/03/24 01:13:30;;;;;;;2.45;2.05;;;20.90;38.50;;;;;;5041083;28;20025;-84
2021/03/24 01:15:56;;;;;;;2.10;1.88;;;20.90;38.50;;;;;;5044910;28;20512;-84
2021/03/24 01:18:23;;;;;;;5.03;2.15;;;20.90;38.50;;;;;;5024473;28;20033;-84
2021/03/24 01:20:49;;;;;;;2.17;1.83;;;20.90;38.50;;;;;;5055074;28;20022;-84
2021/03/24 01:23:15;;;;;;;2.22;1.67;;;20.90;38.60;;;;;;5043101;28;20036;-83
2021/03/24 01:25:42;;;;;;;5.38;2.10;;;20.90;38.50;;;;;;5041039;28;20055;-84
2021/03/24 01:28:14;;;;;;;3.58;2.28;;;20.90;38.50;;;;;;5044832;28;20393;-84
2021/03/24 01:30:39;;;;;;;2.10;1.88;;;20.90;38.50;;;;;;5020360;28;20021;-85
2021/03/24 01:33:05;;;;;;;2.33;2.13;;;20.90;38.50;;;;;;5035316;28;20551;-83
2021/03/24 01:35:31;;;;;;;2.05;1.55;;;20.90;38.50;;;;;;5042221;28;20071;-84
2021/03/24 01:37:57;;;;;;;2.28;1.70;;;20.90;38.40;;;;;;5055401;28;20515;-83
2021/03/24 01:40:33;;;;;;;2.17;1.80;;;20.80;38.40;;;;;;5056064;28;20035;-83
2021/03/24 01:43:04;;;;;;;4.05;1.92;;;20.80;38.40;;;;;;5022357;28;20032;-83
2021/03/24 01:45:29;;;;;;;2.30;1.85;;;20.80;38.50;;;;;;5018675;28;20036;-83
2021/03/24 01:47:57;;;;;;;2.63;2.35;;;20.80;38.50;;;;;;5057124;28;20389;-83
2021/03/24 01:50:28;;;;;;;2.97;1.80;;;20.80;38.50;;;;;;5025927;28;20021;-83
2021/03/24 01:52:54;;;;;;;2.25;2.05;;;20.80;38.50;;;;;;5044719;28;20337;-83
2021/03/24 01:55:20;;;;;;;2.58;2.13;;;20.80;38.50;;;;;;5047372;28;20033;-83
2021/03/24 01:57:46;;;;;;;2.92;2.17;;;20.80;38.50;;;;;;5051198;28;20075;-83
2021/03/24 02:00:23;;;;;;;1.90;1.48;;;20.80;38.50;;;;;;5036825;28;20033;-83
2021/03/24 02:02:49;;;;;;;1.85;1.55;;;20.80;38.50;;;;;;5046865;28;20032;-83
2021/03/24 02:05:14;;;;;;;2.40;2.20;;;20.70;38.50;;;;;;5027506;28;20384;-83
2021/03/24 02:07:43;;;;;;;1.85;1.75;;;20.70;38.50;;;;;;5048306;28;20033;-85
2021/03/24 02:10:17;;;;;;;4.97;2.17;;;20.70;38.50;;;;;;5026792;28;20036;-84
2021/03/24 02:12:50;;;;;;;1.70;1.60;;;20.70;38.50;;;;;;5025752;28;20579;-85
2021/03/24 02:15:42;;;;;;;2.55;1.85;;;20.70;38.50;;;;;;5040540;28;20025;-84
2021/03/24 02:18:10;;;;;;;3.17;2.13;;;20.70;38.50;;;;;;5015276;28;20093;-84
2021/03/24 02:20:46;;;;;;;1.88;1.75;;;20.70;38.50;;;;;;5027144;28;20029;-84
2021/03/24 02:23:37;;;;;;;1.65;1.55;;;20.70;38.50;;;;;;5024207;28;20024;-85
2021/03/24 02:26:21;;;;;;;2.72;2.03;;;20.70;38.50;;;;;;5026488;28;20382;-84
2021/03/24 02:28:50;;;;;;;2.10;1.90;;;20.70;38.50;;;;;;5037724;28;20151;-85
2021/03/24 02:31:19;;;;;;;1.75;1.65;;;20.70;38.50;;;;;;5031449;28;20108;-84
2021/03/24 02:33:48;;;;;;;2.42;1.80;;;20.70;38.40;;;;;;5021639;28;20128;-84
2021/03/24 02:36:18;;;;;;;1.23;1.13;;;20.60;38.50;;;;;;5019840;28;20033;-84
2021/03/24 02:38:47;;;;;;;2.17;1.80;;;20.60;38.30;;;;;;5017571;28;20079;-84
2021/03/24 02:41:13;;;;;;;2.70;1.75;;;20.60;38.30;;;;;;5017185;28;20079;-85
2021/03/24 02:43:41;;;;;;;2.03;1.65;;;20.60;38.40;;;;;;5042055;28;20048;-85
2021/03/24 02:46:09;;;;;;;3.78;2.10;;;20.60;38.40;;;;;;5040397;28;20037;-84
2021/03/24 02:48:37;;;;;;;3.47;1.48;;;20.60;38.40;;;;;;5025733;28;20032;-84
2021/03/24 02:51:07;;;;;;;1.77;1.60;;;20.60;38.50;;;;;;5045099;28;20113;-84
2021/03/24 02:53:34;;;;;;;1.92;1.55;;;20.60;38.50;;;;;;5039681;28;20411;-85
2021/03/24 02:56:04;;;;;;;1.67;1.40;;;20.60;38.50;;;;;;5041594;28;20024;-85
2021/03/24 02:58:30;;;;;;;3.30;2.13;;;20.60;38.40;;;;;;5024348;28;20131;-85
2021/03/24 03:00:56;;;;;;;1.75;1.42;;;20.60;38.50;;;;;;5043142;28;20453;-85
2021/03/24 03:03:29;;;;;;;1.70;1.50;;;20.60;38.40;;;;;;5024100;28;20079;-85
2021/03/24 03:05:57;;;;;;;1.75;1.58;;;20.60;38.50;;;;;;5043757;28;20031;-84
2021/03/24 03:08:29;;;;;;;1.80;1.60;;;20.50;38.40;;;;;;5043869;28;20027;-84
2021/03/24 03:11:08;;;;;;;1.98;1.75;;;20.60;38.50;;;;;;5057617;28;20052;-84
2021/03/24 03:13:36;;;;;;;1.83;1.60;;;20.50;38.40;;;;;;5022591;28;20082;-84
2021/03/24 03:16:11;;;;;;;1.95;1.60;;;20.50;38.40;;;;;;5033816;28;20064;-85
2021/03/24 03:18:52;;;;;;;1.95;1.83;;;20.50;38.40;;;;;;5023982;28;20824;-84
2021/03/24 03:21:25;;;;;;;1.95;1.55;;;20.50;38.40;;;;;;5063656;28;20029;-85
2021/03/24 03:23:51;;;;;;;1.77;1.63;;;20.50;38.40;;;;;;5017193;28;20109;-85
2021/03/24 03:26:20;;;;;;;1.80;1.52;;;20.50;38.40;;;;;;5019609;28;20037;-84
2021/03/24 03:28:51;;;;;;;1.88;1.60;;;20.50;38.40;;;;;;5037599;28;20029;-84
2021/03/24 03:31:26;;;;;;;1.70;1.35;;;20.50;38.40;;;;;;5022877;28;20108;-84
2021/03/24 03:33:55;;;;;;;2.22;1.50;;;20.50;38.30;;;;;;5038211;28;20025;-84
2021/03/24 03:36:23;;;;;;;1.65;1.55;;;20.50;38.30;;;;;;5039975;28;20466;-84
2021/03/24 03:38:52;;;;;;;2.63;1.63;;;20.50;38.30;;;;;;5025755;28;20079;-84
2021/03/24 03:41:18;;;;;;;1.35;1.25;;;20.50;38.30;;;;;;5038673;28;20048;-84
2021/03/24 03:43:48;;;;;;;2.15;1.73;;;20.40;38.30;;;;;;5045491;28;20029;-84
2021/03/24 03:46:18;;;;;;;2.28;1.52;;;20.40;38.30;;;;;;5040912;28;20041;-85
2021/03/24 03:48:48;;;;;;;1.48;1.27;;;20.40;38.30;;;;;;5023589;28;20366;-85
2021/03/24 03:51:43;;;;;;;1.80;1.05;;;20.40;38.30;;;;;;5048941;28;20028;-86
2021/03/24 03:54:14;;;;;;;1.50;1.40;;;20.40;38.40;;;;;;5025502;28;20033;-85
2021/03/24 03:57:01;;;;;;;1.70;1.60;;;20.40;38.40;;;;;;5021040;28;20041;-85
2021/03/24 03:59:47;;;;;;;2.08;1.48;;;20.40;38.40;;;;;;5026416;28;20032;-85
2021/03/24 04:02:16;;;;;;;3.83;1.77;;;20.40;38.30;;;;;;5018362;28;20037;-85
2021/03/24 04:04:48;;;;;;;1.98;1.27;;;20.40;38.30;;;;;;5026375;28;20048;-85
2021/03/24 04:07:34;;;;;;;1.63;1.35;;;20.40;38.30;;;;;;5043066;28;20052;-85
2021/03/24 04:10:01;;;;;;;3.08;1.27;;;20.40;38.30;;;;;;5039927;28;20025;-84
2021/03/24 04:12:28;;;;;;;1.85;1.15;;;20.40;38.30;;;;;;5068270;28;20024;-85
2021/03/24 04:14:54;;;;;;;2.97;1.45;;;20.40;38.40;;;;;;5046265;28;20031;-85
2021/03/24 04:17:28;;;;;;;1.75;1.42;;;20.40;38.30;;;;;;5031912;28;20048;-85
2021/03/24 04:19:56;;;;;;;1.85;1.35;;;20.30;38.20;;;;;;5051725;28;20029;-85
2021/03/24 04:22:29;;;;;;;1.65;1.55;;;20.30;38.70;;;;;;5064818;28;20028;-85
2021/03/24 04:24:56;;;;;;;2.03;1.83;;;20.40;38.20;;;;;;5041396;28;20032;-85
2021/03/24 04:27:28;;;;;;;2.75;1.73;;;20.30;38.30;;;;;;5043791;28;20115;-85
2021/03/24 04:30:07;;;;;;;1.95;1.75;;;20.40;38.30;;;;;;5044315;28;20086;-85
2021/03/24 04:32:32;;;;;;;1.58;1.30;;;20.30;38.30;;;;;;5037134;28;20069;-85
2021/03/24 04:34:58;;;;;;;1.85;1.50;;;20.30;38.30;;;;;;5044748;28;20028;-85
2021/03/24 04:37:50;;;;;;;2.08;1.48;;;20.30;38.20;;;;;;5022907;28;20433;-84
2021/03/24 04:40:38;;;;;;;1.60;1.50;;;20.30;38.30;;;;;;5017906;28;20134;-85
2021/03/24 04:43:12;;;;;;;1.48;1.25;;;20.30;38.30;;;;;;5027593;28;20041;-84
2021/03/24 04:45:46;;;;;;;1.55;1.38;;;20.30;38.30;;;;;;5024892;28;20020;-84
2021/03/24 04:48:26;;;;;;;2.65;1.42;;;20.30;38.30;;;;;;5043023;28;20108;-84
2021/03/24 04:51:07;;;;;;;2.05;1.85;;;20.30;38.30;;;;;;5022529;28;20029;-84
2021/03/24 04:53:39;;;;;;;2.15;1.30;;;20.30;38.30;;;;;;5038117;28;20021;-84
2021/03/24 04:56:06;;;;;;;3.42;1.60;;;20.20;38.30;;;;;;5041394;28;20028;-84
2021/03/24 04:58:36;;;;;;;2.85;1.33;;;20.20;38.30;;;;;;5023104;28;20039;-84
2021/03/24 05:01:28;;;;;;;2.05;1.45;;;20.20;38.30;;;;;;5051496;28;20033;-85
2021/03/24 05:03:59;;;;;;;1.45;1.20;;;20.20;38.30;;;;;;5020993;28;20026;-84
2021/03/24 05:06:34;;;;;;;1.92;1.52;;;20.20;38.30;;;;;;5045613;28;20028;-85
2021/03/24 05:09:01;;;;;;;1.98;1.65;;;20.20;38.20;;;;;;5060268;28;20035;-85
2021/03/24 05:11:46;;;;;;;2.10;1.33;;;20.20;38.20;;;;;;5045820;28;20056;-85
2021/03/24 05:14:35;;;;;;;1.65;1.40;;;20.20;38.20;;;;;;5026832;28;20079;-85
2021/03/24 05:17:14;;;;;;;1.48;1.38;;;20.20;38.30;;;;;;5041058;28;20047;-85
2021/03/24 05:19:40;;;;;;;2.83;1.55;;;20.20;38.30;;;;;;5040581;28;20421;-85
2021/03/24 05:22:24;;;;;;;1.88;1.50;;;20.20;38.30;;;;;;5063505;28;20481;-85
2021/03/24 05:24:54;;;;;;;1.75;1.42;;;20.10;38.20;;;;;;5058279;28;20037;-85
2021/03/24 05:27:27;;;;;;;2.28;1.20;;;20.20;38.30;;;;;;5025169;28;20086;-85
2021/03/24 05:29:58;;;;;;;1.85;1.42;;;20.20;38.30;;;;;;5025841;28;20029;-85
2021/03/24 05:32:32;;;;;;;2.42;1.60;;;20.20;38.30;;;;;;5026951;28;20028;-85
2021/03/24 05:34:59;;;;;;;1.83;1.58;;;20.10;38.20;;;;;;5055092;28;20029;-84
2021/03/24 05:37:28;;;;;;;1.73;1.60;;;20.10;38.20;;;;;;5022292;28;20040;-84
2021/03/24 05:40:03;;;;;;;1.98;1.58;;;20.10;38.20;;;;;;5042336;28;20036;-84
2021/03/24 05:42:46;;;;;;;1.75;1.60;;;20.20;38.30;;;;;;5022605;28;20037;-85
2021/03/24 05:45:34;;;;;;;2.75;1.88;;;20.10;38.20;;;;;;5037740;28;20075;-85
2021/03/24 05:48:10;;;;;;;2.05;1.10;;;20.20;38.30;;;;;;5017406;28;20053;-85
2021/03/24 05:51:13;;;;;;;1.90;1.42;;;20.10;38.40;;;;;;5049875;28;20484;-84
2021/03/24 05:54:12;;;;;;;1.42;1.25;;;20.10;38.50;;;;;;5022359;28;20032;-84
2021/03/24 05:56:59;;;;;;;2.17;1.15;;;20.00;38.60;;;;;;5038674;28;20037;-85
2021/03/24 06:00:03;;;;;;;2.00;1.50;;;20.00;38.70;;;;;;5041466;28;20099;-86
2021/03/24 06:02:40;;;;;;;1.85;1.05;;;20.00;38.80;;;;;;5039214;28;20033;-85
2021/03/24 06:05:13;;;;;;;2.13;1.40;;;20.00;38.80;;;;;;5039670;28;20064;-85
2021/03/24 06:08:09;;;;;;;2.15;1.55;;;20.00;38.80;;;;;;5036071;28;20025;-85
2021/03/24 06:10:54;;;;;;;2.08;1.52;;;20.00;38.90;;;;;;5040359;28;20021;-85
2021/03/24 06:13:53;;;;;;;2.08;1.83;;;20.00;38.90;;;;;;5026637;28;20037;-86
2021/03/24 06:16:50;;;;;;;2.05;1.60;;;20.00;38.90;;;;;;5026514;28;20033;-86
2021/03/24 06:19:47;;;;;;;1.80;1.48;;;20.00;38.80;;;;;;5024862;28;20120;-85
2021/03/24 06:22:37;;;;;;;1.77;1.65;;;20.00;38.90;;;;;;5045936;28;20025;-86
2021/03/24 06:25:10;;;;;;;3.67;2.28;;;20.00;38.90;;;;;;5026135;28;20036;-86
2021/03/24 06:28:06;;;;;;;1.70;1.20;;;20.00;38.90;;;;;;5025386;28;20104;-86
2021/03/24 06:30:41;;;;;;;1.52;1.42;;;20.00;38.90;;;;;;5043863;28;20057;-83
2021/03/24 06:33:27;;;;;;;2.60;1.85;;;20.00;39.00;;;;;;5042879;28;20029;-83
2021/03/24 06:36:27;;;;;;;3.17;2.72;;;20.00;39.00;;;;;;5027498;28;20123;-85
2021/03/24 06:38:58;;;;;;;2.50;1.77;;;20.00;38.90;;;;;;5042231;28;20119;-85
2021/03/24 06:41:59;;;;;;;1.40;1.25;;;20.00;38.80;;;;;;5024977;28;20033;-85
2021/03/24 06:44:49;;;;;;;3.28;2.40;;;20.10;38.80;;;;;;5019424;28;20032;-85
2021/03/24 06:47:39;;;;;;;4.90;2.35;;;20.30;38.50;;;;;;5014351;28;20091;-85
2021/03/24 06:50:23;;;;;;;3.60;2.67;;;20.50;38.20;;;;;;5033892;28;20028;-85
2021/03/24 06:53:43;;;;;;;4.07;2.45;;;20.60;37.90;;;;;;5029256;28;20032;-85
2021/03/24 06:56:28;;;;;;;3.85;2.58;;;20.80;37.70;;;;;;5030582;28;20036;-85
2021/03/24 06:59:03;;;;;;;3.55;2.30;;;20.90;37.50;;;;;;5035844;28;20086;-85
2021/03/24 07:02:02;;;;;;;6.88;2.80;;;20.90;37.40;;;;;;5021689;28;20028;-85
2021/03/24 07:05:06;;;;;;;3.15;2.60;;;21.00;37.30;;;;;;5026389;28;20025;-85
2021/03/24 07:07:37;;;;;;;3.17;2.00;;;21.10;37.20;;;;;;5032029;28;20021;-85
2021/03/24 07:10:24;;;;;;;6.72;2.25;;;21.20;37.10;;;;;;5038100;28;20033;-85
2021/03/24 07:13:30;;;;;;;2.33;2.13;;;21.30;37.10;;;;;;5035775;28;20037;-85
2021/03/24 07:16:21;;;;;;;3.20;2.15;;;21.30;36.90;;;;;;5024384;28;20032;-85
2021/03/24 07:19:05;;;;;;;2.30;1.80;;;21.40;36.90;;;;;;5020745;28;20485;-85
2021/03/24 07:21:58;;;;;;;4.90;1.67;;;21.40;36.90;;;;;;5051295;28;20032;-84
2021/03/24 07:25:01;;;;;;;2.28;1.80;;;21.40;36.90;;;;;;5033971;28;20112;-85
2021/03/24 07:27:42;;;;;;;2.67;1.90;;;21.50;36.90;;;;;;5044449;28;20420;-85
2021/03/24 07:30:32;;;;;;;2.03;1.70;;;21.50;36.90;;;;;;5013159;28;20036;-85
2021/03/24 07:33:02;;;;;;;4.05;1.95;;;21.50;36.90;;;;;;5032258;28;20033;-85
2021/03/24 07:35:35;;;;;;;2.10;1.90;;;21.50;36.90;;;;;;5015051;28;20086;-85
2021/03/24 07:38:18;;;;;;;2.70;1.58;;;21.50;36.90;;;;;;5017980;28;20027;-85
2021/03/24 07:40:51;;;;;;;2.50;1.90;;;21.50;37.00;;;;;;5018011;28;20095;-85
2021/03/24 07:43:38;;;;;;;2.13;1.73;;;21.50;37.00;;;;;;5038932;28;20174;-85
2021/03/24 07:46:16;;;;;;;2.20;1.67;;;21.50;37.00;;;;;;5032437;28;20469;-85
2021/03/24 07:49:05;;;;;;;2.22;1.58;;;21.50;37.10;;;;;;5030191;28;20112;-85
2021/03/24 07:51:52;;;;;;;4.50;1.70;;;21.50;37.10;;;;;;5019038;28;20665;-85
2021/03/24 07:54:46;;;;;;;1.70;1.48;;;21.50;37.20;;;;;;5016662;28;20021;-85
2021/03/24 07:57:41;;;;;;;2.45;1.80;;;21.50;37.20;;;;;;5014733;28;20120;-85
2021/03/24 08:00:30;;;;;;;3.72;2.00;;;21.40;37.20;;;;;;5012205;28;21639;-85
2021/03/24 08:03:22;;;;;;;1.85;1.65;;;21.40;37.20;;;;;;5029118;28;20021;-85
2021/03/24 08:05:51;;;;;;;5.05;1.90;;;21.40;37.30;;;;;;5038803;28;20521;-85
2021/03/24 08:08:44;;;;;;;2.28;2.00;;;21.40;37.30;;;;;;5031260;28;20083;-85
2021/03/24 08:11:22;;;;;;;2.13;1.80;;;21.40;37.30;;;;;;5040520;28;20025;-85
2021/03/24 08:14:11;;;;;;;2.42;1.88;;;21.40;37.30;;;;;;5013359;28;20561;-85
2021/03/24 08:17:01;;;;;;;3.30;2.08;;;21.40;37.40;;;;;;5053379;28;20021;-85
2021/03/24 08:19:45;;;;;;;1.60;1.50;;;21.40;37.40;;;;;;5019835;28;20113;-85
2021/03/24 08:22:42;;;;;;;2.72;1.90;;;21.30;37.40;;;;;;5044742;28;20029;-84
2021/03/24 08:25:36;;;;;;;3.47;2.38;;;21.40;37.40;;;;;;5019349;28;20057;-85
2021/03/24 08:28:20;;;;;;;2.17;1.63;;;21.40;37.50;;;;;;5037158;28;20172;-85
2021/03/24 08:30:57;;;;;;;2.28;2.08;;;21.30;37.50;;;;;;5021706;28;20018;-85
2021/03/24 08:34:00;;;;;;;3.20;1.70;;;21.30;37.50;;;;;;5037664;28;20078;-85
2021/03/24 08:37:07;;;;;;;3.03;1.98;;;21.30;37.50;;;;;;5047008;28;20036;-85
2021/03/24 08:39:48;;;;;;;2.75;1.70;;;21.30;38.00;;;;;;4989981;28;20723;-85
2021/03/24 08:42:51;;;;;;;2.28;1.80;;;21.30;37.50;;;;;;5045589;28;20039;-85
2021/03/24 08:45:37;;;;;;;1.88;1.27;;;21.30;37.50;;;;;;5025864;28;20074;-85
2021/03/24 08:48:12;;;;;;;1.63;1.45;;;21.30;37.60;;;;;;5037528;28;20458;-84
2021/03/24 08:50:42;;;;;;;2.50;1.45;;;21.30;37.60;;;;;;5024685;28;20384;-85
2021/03/24 08:53:38;;;;;;;2.75;2.00;;;21.30;37.60;;;;;;5021367;28;20104;-85
2021/03/24 08:56:16;;;;;;;2.55;1.70;;;21.30;37.60;;;;;;5035077;28;20094;-85
2021/03/24 08:58:51;;;;;;;3.20;1.77;;;21.30;37.60;;;;;;5019769;28;20025;-84
2021/03/24 09:02:03;;;;;;;2.40;1.40;;;21.30;37.60;;;;;;5035248;28;20047;-85
2021/03/24 09:04:51;;;;;;;2.13;1.60;;;21.30;37.60;;;;;;5031797;28;20029;-85
2021/03/24 09:07:51;;;;;;;1.90;1.77;;;21.30;37.60;;;;;;5038362;28;20033;-85
2021/03/24 09:10:34;;;;;;;3.28;1.90;;;21.30;37.60;;;;;;5050698;28;20170;-85
2021/03/24 09:13:23;;;;;;;3.40;2.25;;;21.30;37.50;;;;;;5031785;28;20033;-85
2021/03/24 09:16:13;;;;;;;3.50;2.30;;;21.30;37.50;;;;;;5020442;28;20085;-85
2021/03/24 09:19:29;;;;;;;2.10;1.83;;;21.30;37.50;;;;;;5044133;28;20049;-85
2021/03/24 09:22:14;;;;;;;2.92;2.08;;;21.30;37.50;;;;;;5013463;28;20037;-84
2021/03/24 09:25:04;;;;;;;3.30;2.22;;;21.30;37.50;;;;;;5023502;28;20400;-85
2021/03/24 09:28:08;;;;;;;2.78;1.77;;;21.30;37.40;;;;;;5028470;28;20477;-85
2021/03/24 09:30:41;;;;;;;1.85;1.70;;;21.30;37.40;;;;;;5051498;28;20074;-85
2021/03/24 09:33:18;;;;;;;3.47;2.05;;;21.30;37.50;;;;;;5037196;28;20032;-85
2021/03/24 09:35:52;;;;;;;2.50;1.85;;;21.30;37.50;;;;;;5019799;28;20119;-85
2021/03/24 09:38:24;;;;;;;2.63;2.00;;;21.30;37.40;;;;;;5025773;28;20048;-85
2021/03/24 09:40:54;;;;;;;2.33;1.90;;;21.40;37.50;;;;;;5015357;28;20815;-85
2021/03/24 09:43:29;;;;;;;3.83;2.55;;;21.30;37.50;;;;;;5019767;28;20033;-85
2021/03/24 09:46:28;;;;;;;2.20;1.88;;;21.40;37.50;;;;;;5034457;28;20029;-85
2021/03/24 09:49:00;;;;;;;2.47;1.52;;;21.40;37.50;;;;;;5018345;28;20048;-85
2021/03/24 09:51:36;;;;;;;2.75;2.17;;;21.40;37.50;;;;;;5035086;28;20067;-85
2021/03/24 09:54:23;;;;;;;2.65;2.22;;;21.40;37.50;;;;;;5027540;28;20043;-85
2021/03/24 09:57:08;;;;;;;3.55;2.17;;;21.40;37.50;;;;;;5041230;28;20078;-85
2021/03/24 09:59:51;;;;;;;2.30;1.88;;;21.30;37.50;;;;;;5020667;28;20024;-85
2021/03/24 10:02:38;;;;;;;2.25;1.85;;;21.40;37.50;;;;;;5016433;28;20116;-85
2021/03/24 10:05:13;;;;;;;2.20;1.48;;;21.40;37.50;;;;;;5021897;28;20667;-85
2021/03/24 10:07:56;;;;;;;2.65;2.38;;;21.40;37.50;;;;;;5058911;28;20798;-85
2021/03/24 10:10:28;;;;;;;2.50;2.00;;;21.40;37.50;;;;;;5027027;28;20031;-85
2021/03/24 10:13:06;;;;;;;1.73;1.40;;;21.50;37.50;;;;;;5032882;28;20108;-86
2021/03/24 10:15:48;;;;;;;2.10;1.95;;;21.50;37.60;;;;;;5056559;28;20025;-85
2021/03/24 10:18:41;;;;;;;2.28;1.70;;;21.50;37.60;;;;;;5040520;28;20609;-85
2021/03/24 10:21:13;;;;;;;3.05;1.92;;;21.50;37.50;;;;;;5029195;28;20502;-85
2021/03/24 10:23:49;;;;;;;3.45;1.60;;;21.50;37.50;;;;;;5015559;28;20025;-85
2021/03/24 10:26:41;;;;;;;2.10;1.88;;;21.60;37.60;;;;;;5037088;28;20258;-85
2021/03/24 10:29:10;;;;;;;2.97;1.70;;;21.60;37.60;;;;;;5030014;28;20036;-85
2021/03/24 10:31:41;;;;;;;3.13;2.22;;;21.60;37.60;;;;;;5021176;28;20033;-85
2021/03/24 10:34:19;;;;;;;3.45;1.90;;;21.70;37.60;;;;;;5052465;28;20033;-85
2021/03/24 10:37:22;;;;;;;3.45;2.55;;;21.70;37.50;;;;;;5006756;28;20121;-85
2021/03/24 10:40:05;;;;;;;2.90;1.80;;;21.70;37.50;;;;;;5024237;28;21148;-85
2021/03/24 10:42:38;;;;;;;4.03;2.03;;;21.80;37.50;;;;;;5024492;28;20025;-85
2021/03/24 10:45:20;;;;;;;2.42;1.90;;;21.80;37.50;;;;;;5023458;28;20021;-85
2021/03/24 10:47:55;;;;;;;2.15;1.50;;;21.80;37.40;;;;;;5036903;28;20024;-85
2021/03/24 10:50:42;;;;;;;1.95;1.77;;;21.80;37.50;;;;;;5037123;28;20085;-85
2021/03/24 10:53:14;;;;;;;2.30;1.63;;;21.80;37.50;;;;;;5015934;28;20036;-85
2021/03/24 10:55:43;;;;;;;3.03;2.17;;;21.80;37.40;;;;;;5025962;28;20412;-85
2021/03/24 10:58:18;;;;;;;2.05;1.80;;;21.80;37.40;;;;;;5041956;28;20029;-86
2021/03/24 11:00:52;;;;;;;3.92;2.35;;;21.80;37.40;;;;;;5029231;28;20033;-85
2021/03/24 11:03:26;;;;;;;2.85;1.77;;;21.80;37.40;;;;;;5030680;28;20043;-85
2021/03/24 11:06:11;;;;;;;3.42;2.40;;;21.80;37.40;;;;;;5030693;28;20025;-86
2021/03/24 11:09:02;;;;;;;3.88;2.45;;;21.90;37.40;;;;;;5033477;28;20028;-85
2021/03/24 11:11:39;;;;;;;2.22;1.67;;;21.90;37.40;;;;;;5059200;28;20025;-86
2021/03/24 11:14:23;;;;;;;2.15;1.85;;;21.90;37.40;;;;;;5015899;28;20017;-85
2021/03/24 11:16:52;;;;;;;3.53;2.08;;;21.90;37.40;;;;;;5014057;28;20029;-85
2021/03/24 11:19:48;;;;;;;4.45;2.13;;;21.90;37.40;;;;;;5019382;28;20036;-86
2021/03/24 11:22:14;;;;;;;2.90;2.03;;;21.90;37.40;;;;;;5028424;28;20044;-86
2021/03/24 11:24:56;;;;;;;4.13;1.85;;;21.90;37.30;;;;;;5014873;28;20021;-85
2021/03/24 11:27:26;;;;;;;3.95;2.42;;;21.90;37.40;;;;;;5014566;28;20192;-85
2021/03/24 11:30:07;;;;;;;1.67;1.50;;;21.90;37.40;;;;;;5055170;28;20887;-85
2021/03/24 11:32:51;;;;;;;1.87;1.60;;;21.90;37.40;;;;;;5030036;28;20032;-85
2021/03/24 11:35:21;;;;;;;2.25;1.92;;;21.90;37.30;;;;;;5038121;28;20392;-86
2021/03/24 11:38:08;;;;;;;2.88;1.92;;;21.90;37.30;;;;;;5017443;28;20014;-85
2021/03/24 11:40:44;;;;;;;2.22;1.88;;;22.00;37.40;;;;;;5018608;28;20040;-85
2021/03/24 11:43:32;;;;;;;5.57;2.10;;;21.90;37.30;;;;;;5035563;28;20107;-85
2021/03/24 11:46:13;;;;;;;2.50;1.83;;;21.90;37.30;;;;;;5021672;28;20447;-85
2021/03/24 11:48:59;;;;;;;2.72;1.90;;;21.90;37.40;;;;;;5038527;28;20025;-85
2021/03/24 11:51:34;;;;;;;2.38;1.73;;;21.90;37.40;;;;;;5019137;28;20413;-85
2021/03/24 11:54:08;;;;;;;1.98;1.73;;;22.00;37.40;;;;;;5019576;28;20036;-85
2021/03/24 11:56:49;;;;;;;3.58;2.22;;;21.90;37.40;;;;;;5025720;28;20032;-85
2021/03/24 11:59:39;;;;;;;3.35;1.88;;;22.00;37.50;;;;;;5033450;28;20342;-86
2021/03/24 12:02:17;;;;;;;2.97;1.42;;;21.90;37.50;;;;;;5020020;28;20090;-85
2021/03/24 12:05:05;;;;;;;3.63;1.40;;;22.00;37.50;;;;;;5029959;28;20489;-85
2021/03/24 12:08:03;;;;;;;2.80;1.60;;;22.00;37.60;;;;;;5027502;28;20033;-85
2021/03/24 12:10:37;;;;;;;2.38;1.50;;;21.90;37.50;;;;;;5018378;28;20021;-85
2021/03/24 12:13:13;;;;;;;4.70;2.00;;;22.00;37.60;;;;;;5038475;28;20797;-85
2021/03/24 12:15:42;;;;;;;2.95;1.77;;;21.90;37.50;;;;;;5023267;28;20085;-85
2021/03/24 12:18:15;;;;;;;3.28;1.55;;;22.00;37.70;;;;;;5039186;28;20396;-84
2021/03/24 12:20:45;;;;;;;2.45;1.40;;;22.00;37.60;;;;;;5037063;28;20028;-85
2021/03/24 12:23:11;;;;;;;1.27;1.17;;;22.00;37.70;;;;;;5042164;28;20401;-84
2021/03/24 12:25:44;;;;;;;6.30;1.50;;;22.00;37.70;;;;;;5055239;28;20029;-84
2021/03/24 12:28:11;;;;;;;1.75;1.60;;;22.00;38.20;;;;;;5037918;28;20460;-85
2021/03/24 12:30:44;;;;;;;2.33;2.00;;;22.00;37.70;;;;;;5022940;28;20024;-84
2021/03/24 12:33:22;;;;;;;2.45;1.70;;;22.00;37.70;;;;;;5035434;28;20021;-85
2021/03/24 12:36:01;;;;;;;1.92;1.40;;;22.00;37.70;;;;;;5036070;28;20436;-85
2021/03/24 12:38:27;;;;;;;4.05;1.77;;;22.00;37.70;;;;;;5037774;28;20033;-85
2021/03/24 12:40:59;;;;;;;1.95;1.25;;;22.00;37.80;;;;;;5035234;28;20556;-85
2021/03/24 12:43:24;;;;;;;2.10;1.15;;;22.00;37.80;;;;;;5020009;28;20028;-85
2021/03/24 12:45:50;;;;;;;3.38;1.73;;;22.00;37.70;;;;;;5037292;28;20029;-85
2021/03/24 12:48:27;;;;;;;3.72;1.30;;;22.00;37.70;;;;;;5038680;28;20048;-84
2021/03/24 12:51:33;;;;;;;2.20;1.17;;;22.00;37.80;;;;;;5037157;28;20040;-85
2021/03/24 12:54:07;;;;;;;3.17;1.75;;;22.00;37.80;;;;;;5025853;28;20043;-85
2021/03/24 12:56:55;;;;;;;3.00;1.73;;;22.00;37.80;;;;;;5041055;28;20048;-85
2021/03/24 12:59:33;;;;;;;3.90;1.63;;;22.00;37.80;;;;;;5024423;28;20033;-85
2021/03/24 13:02:29;;;;;;;1.95;1.63;;;22.00;37.90;;;;;;5025320;28;20029;-84
2021/03/24 13:05:22;;;;;;;3.45;1.50;;;22.00;37.80;;;;;;5038218;28;20029;-85
2021/03/24 13:08:26;;;;;;;2.08;1.65;;;22.00;37.80;;;;;;5027075;28;20024;-84
2021/03/24 13:10:53;;;;;;;2.25;1.58;;;22.00;37.80;;;;;;5042844;28;20400;-84
2021/03/24 13:13:37;;;;;;;2.03;1.48;;;22.00;37.90;;;;;;5023438;28;20455;-84
2021/03/24 13:16:16;;;;;;;2.25;1.88;;;22.00;37.90;;;;;;5042356;28;20090;-84
2021/03/24 13:19:01;;;;;;;2.30;1.40;;;22.00;37.90;;;;;;5035520;28;20079;-85
2021/03/24 13:21:51;;;;;;;2.95;1.73;;;22.00;37.90;;;;;;5030791;28;20055;-86
2021/03/24 13:24:19;;;;;;;1.17;1.00;;;22.00;37.80;;;;;;5012882;28;20025;-85
2021/03/24 13:26:45;;;;;;;1.77;1.55;;;22.00;37.90;;;;;;5052055;28;20118;-85
2021/03/24 13:29:11;;;;;;;3.42;1.30;;;22.00;37.90;;;;;;5023916;28;20767;-85
2021/03/24 13:32:02;;;;;;;2.47;1.65;;;22.00;37.90;;;;;;5034455;28;20033;-85
2021/03/24 13:35:13;;;;;;;2.28;1.40;;;22.00;37.80;;;;;;5022591;28;20024;-85
2021/03/24 13:37:38;;;;;;;2.70;1.00;;;22.00;37.90;;;;;;5052366;28;20400;-84
2021/03/24 13:40:29;;;;;;;2.38;1.50;;;22.00;37.90;;;;;;5040475;28;20025;-85
2021/03/24 13:43:12;;;;;;;1.55;1.42;;;22.00;37.90;;;;;;5020457;28;20021;-84